Time;durP1;ratioP1;P1;durP2;ratioP2;P2;SDS_P1;SDS_P2;PMS_P1;PMS_P2;Temp;Humidity;BMP_temperature;BMP_pressure;BME280_temperature;BME280_humidity;BME280_pressure;Samples;Min_cycle;Max_cycle;Signal;HPM_P1;HPM_P2
2022/04/22 00:00:02;;;;;;;14.98;7.35;;;;;;;14.48;53.02;101110.38;5003784;28;20044;-59
2022/04/22 00:02:27;;;;;;;11.90;7.15;;;;;;;14.44;52.64;101112.16;5021697;28;20045;-59
2022/04/22 00:04:52;;;;;;;10.65;7.00;;;;;;;14.26;53.39;101111.19;5011360;28;20458;-59
2022/04/22 00:07:18;;;;;;;11.63;6.88;;;;;;;14.40;53.21;101105.13;5012344;28;20040;-59
2022/04/22 00:09:43;;;;;;;14.55;7.43;;;;;;;14.30;53.27;101119.06;5018793;28;20044;-59
2022/04/22 00:12:09;;;;;;;13.13;7.10;;;;;;;14.20;53.59;101112.06;5019126;28;20092;-59
2022/04/22 00:14:38;;;;;;;10.55;7.13;;;;;;;14.17;53.74;101110.28;5021218;28;20088;-59
2022/04/22 00:17:03;;;;;;;11.93;7.47;;;;;;;14.19;53.68;101118.19;5008277;28;20774;-59
2022/04/22 00:19:32;;;;;;;11.73;6.90;;;;;;;14.20;53.58;101120.81;5014748;28;20048;-60
2022/04/22 00:21:58;;;;;;;11.75;7.15;;;;;;;14.14;53.92;101114.66;5007191;28;20178;-59
2022/04/22 00:24:23;;;;;;;14.90;6.80;;;;;;;14.09;54.04;101121.63;5016242;28;20037;-61
2022/04/22 00:26:48;;;;;;;10.80;6.70;;;;;;;13.99;53.91;101112.88;5011338;28;20076;-60
2022/04/22 00:29:15;;;;;;;12.43;7.18;;;;;;;13.98;54.25;101111.09;5020672;28;20047;-61
2022/04/22 00:31:40;;;;;;;10.75;6.90;;;;;;;13.98;54.28;101103.25;5018602;28;20328;-58
2022/04/22 00:34:06;;;;;;;15.27;7.40;;;;;;;13.94;54.03;101113.72;5019522;28;20680;-60
2022/04/22 00:36:31;;;;;;;10.68;7.07;;;;;;;13.85;54.25;101113.69;5015923;28;20111;-59
2022/04/22 00:38:56;;;;;;;11.88;7.03;;;;;;;13.89;54.27;101110.22;5010436;28;20045;-60
2022/04/22 00:41:22;;;;;;;10.93;7.03;;;;;;;13.75;54.77;101116.28;5019004;28;20036;-59
2022/04/22 00:43:50;;;;;;;12.70;7.47;;;;;;;13.84;54.65;101115.44;5013018;28;20273;-60
2022/04/22 00:46:16;;;;;;;12.85;7.20;;;;;;;13.81;54.46;101110.19;5014826;28;20227;-59
2022/04/22 00:48:41;;;;;;;14.43;6.88;;;;;;;13.75;54.44;101118.00;5010018;28;20574;-61
2022/04/22 00:51:08;;;;;;;14.88;7.20;;;;;;;13.72;55.09;101107.53;5018186;28;20029;-59
2022/04/22 00:53:35;;;;;;;10.30;6.65;;;;;;;13.63;54.85;101116.22;5020012;28;20048;-59
2022/04/22 00:56:04;;;;;;;18.08;6.85;;;;;;;13.69;54.92;101111.00;5008026;28;20037;-60
2022/04/22 00:58:30;;;;;;;10.57;6.88;;;;;;;13.67;54.79;101104.88;5021381;28;20123;-57
2022/04/22 01:00:55;;;;;;;10.98;7.03;;;;;;;13.67;55.34;101104.00;5005903;28;20254;-59
2022/04/22 01:03:21;;;;;;;10.35;6.80;;;;;;;13.60;54.71;101100.47;5018148;28;20320;-59
2022/04/22 01:11:27;;;;;;;10.82;7.20;;;;;;;13.54;55.03;101092.59;4990774;28;20294;-59
2022/04/22 01:13:54;;;;;;;14.13;7.20;;;;;;;13.40;55.18;101094.28;5018386;28;20032;-59
2022/04/22 01:16:19;;;;;;;13.80;7.50;;;;;;;13.41;54.94;101085.56;5012198;28;20122;-60
2022/04/22 01:18:45;;;;;;;11.77;7.50;;;;;;;13.47;55.08;101087.34;5010305;28;20563;-59
2022/04/22 01:21:10;;;;;;;14.63;8.07;;;;;;;13.45;55.12;101081.19;5014288;28;20918;-59
2022/04/22 01:23:36;;;;;;;15.15;7.70;;;;;;;13.43;55.32;101077.69;4995383;28;20425;-59
2022/04/22 01:26:02;;;;;;;14.95;7.90;;;;;;;13.34;55.86;101082.03;5014341;28;20723;-59
2022/04/22 01:28:28;;;;;;;12.65;8.05;;;;;;;13.32;56.05;101073.28;5018021;28;20328;-59
2022/04/22 01:30:57;;;;;;;12.75;7.88;;;;;;;13.26;55.78;101075.88;5011038;28;20067;-60
2022/04/22 01:33:23;;;;;;;12.70;7.97;;;;;;;13.16;55.99;101081.94;5013771;28;20386;-58
2022/04/22 01:35:48;;;;;;;17.20;7.88;;;;;;;13.20;56.05;101081.06;5019678;28;20386;-60
2022/04/22 01:38:14;;;;;;;13.80;8.32;;;;;;;13.25;55.90;101083.69;5017326;28;20179;-59
2022/04/22 01:40:40;;;;;;;14.73;7.78;;;;;;;13.08;56.66;101075.72;5009116;28;20610;-59
2022/04/22 01:43:05;;;;;;;12.15;7.80;;;;;;;13.10;56.61;101081.84;5016429;28;20177;-59
2022/04/22 01:45:31;;;;;;;12.70;8.13;;;;;;;13.13;56.35;101087.13;5018618;28;20068;-59
2022/04/22 06:06:58;;;;;;;16.45;10.82;;;;;;;13.01;61.45;101035.53;4970963;28;20242;-59
2022/04/22 06:12:08;;;;;;;19.08;11.68;;;;;;;13.70;60.04;101028.94;4980496;28;20104;-58
2022/04/22 06:14:33;;;;;;;20.80;11.38;;;;;;;14.56;57.32;101025.56;4978843;28;20621;-59
2022/04/22 06:16:58;;;;;;;17.33;11.27;;;;;;;15.19;55.12;101017.56;4973782;28;20567;-58
2022/04/22 06:19:24;;;;;;;17.38;11.20;;;;;;;16.39;51.29;101009.91;4984129;28;20052;-60
2022/04/22 06:21:49;;;;;;;16.45;11.30;;;;;;;17.21;49.36;101011.75;4978091;28;20050;-59
2022/04/22 06:24:14;;;;;;;17.83;11.18;;;;;;;17.80;47.29;101000.50;4970123;28;20480;-59
2022/04/22 06:26:39;;;;;;;16.67;10.80;;;;;;;18.16;46.63;101004.34;4969347;28;20073;-61
2022/04/22 06:29:05;;;;;;;18.58;10.45;;;;;;;18.30;46.26;101001.47;4978125;28;20648;-60
2022/04/22 06:31:31;;;;;;;18.23;11.45;;;;;;;17.47;46.93;100995.63;4976883;28;20041;-59
2022/04/22 06:34:00;;;;;;;17.17;10.90;;;;;;;17.89;47.09;100994.19;4980481;28;20046;-59
2022/04/22 06:36:28;;;;;;;17.75;11.38;;;;;;;18.71;45.63;100987.59;4977317;28;20312;-60
2022/04/22 06:38:58;;;;;;;17.58;11.50;;;;;;;18.49;45.01;100992.34;4974070;28;20038;-59
2022/04/22 06:46:56;;;;;;;16.60;11.43;;;;;;;18.03;45.98;100996.63;4968017;28;20060;-59
2022/04/22 06:49:23;;;;;;;18.27;11.98;;;;;;;17.92;46.47;100991.53;4976274;28;20044;-59
2022/04/22 06:51:49;;;;;;;20.52;11.93;;;;;;;18.21;45.81;100989.31;4982832;28;20050;-59
2022/04/22 06:54:15;;;;;;;16.88;12.13;;;;;;;18.04;46.36;100991.34;4977509;28;20121;-58
2022/04/22 06:56:41;;;;;;;21.15;11.80;;;;;;;18.22;45.07;100998.97;4970640;28;20044;-60
2022/04/22 06:59:08;;;;;;;18.25;12.32;;;;;;;18.73;44.16;100998.13;4973353;28;20030;-59
2022/04/22 07:01:37;;;;;;;19.60;12.60;;;;;;;18.78;44.56;100998.94;4977339;28;20742;-59
2022/04/22 07:04:03;;;;;;;16.90;11.23;;;;;;;19.11;43.88;100992.13;4977479;28;20050;-60
2022/04/22 07:06:29;;;;;;;16.65;12.07;;;;;;;18.86;44.27;100984.66;4977796;28;20477;-59
2022/04/22 07:08:55;;;;;;;16.67;11.70;;;;;;;19.82;41.85;100988.00;4967922;28;20290;-59
2022/04/22 07:11:26;;;;;;;18.45;12.18;;;;;;;19.71;41.95;100982.94;4974122;28;20062;-59
2022/04/22 07:13:56;;;;;;;18.10;12.77;;;;;;;19.29;42.38;101000.53;4973727;28;20042;-58
2022/04/22 07:16:22;;;;;;;17.35;12.15;;;;;;;19.39;42.51;100994.16;4977408;28;20054;-59
2022/04/22 07:18:48;;;;;;;18.73;12.02;;;;;;;19.89;41.23;100978.13;4972898;28;20129;-59
2022/04/22 07:21:14;;;;;;;16.88;12.70;;;;;;;19.85;41.04;100979.97;4976517;28;20045;-59
2022/04/22 07:23:40;;;;;;;19.77;12.82;;;;;;;19.58;41.73;100981.44;4983034;28;20499;-60
2022/04/22 07:26:09;;;;;;;16.92;12.18;;;;;;;19.92;42.07;100980.72;4979068;28;21083;-58
2022/04/22 07:28:38;;;;;;;17.75;12.40;;;;;;;20.45;41.01;100971.47;4975488;28;20100;-59
2022/04/22 07:31:04;;;;;;;18.02;12.40;;;;;;;20.12;41.12;100978.47;4975646;28;20046;-59
2022/04/22 07:33:33;;;;;;;20.42;11.98;;;;;;;20.33;40.62;100977.09;4980152;28;20153;-58
2022/04/22 07:35:58;;;;;;;16.35;12.38;;;;;;;20.04;40.80;100972.47;4976702;28;20929;-58
2022/04/22 07:38:24;;;;;;;19.70;13.02;;;;;;;19.38;42.67;100983.63;4980288;28;20045;-59
2022/04/22 07:40:51;;;;;;;18.48;12.43;;;;;;;19.69;41.72;100974.19;4962121;28;20117;-58
2022/04/22 07:48:47;;;;;;;18.38;12.10;;;;;;;20.35;40.38;100984.09;4973429;28;20048;-60
2022/04/22 07:51:13;;;;;;;18.85;12.25;;;;;;;20.28;39.89;100979.81;4963805;28;20061;-59
2022/04/22 07:53:38;;;;;;;18.50;12.25;;;;;;;19.36;41.95;100981.03;4972543;28;20760;-59
2022/04/22 07:56:05;;;;;;;19.13;12.85;;;;;;;19.16;42.55;100971.75;4979711;28;20442;-59
2022/04/22 07:58:39;;;;;;;20.70;12.43;;;;;;;19.71;41.46;100976.75;4978527;28;20107;-58
2022/04/22 08:01:05;;;;;;;18.13;11.90;;;;;;;19.86;42.92;100973.78;4978242;28;20103;-59
2022/04/22 08:03:31;;;;;;;19.30;11.77;;;;;;;19.76;41.24;100975.75;4970682;28;20466;-59
2022/04/22 08:05:57;;;;;;;17.75;12.32;;;;;;;19.23;43.05;100976.00;4968486;28;20046;-58
2022/04/22 08:08:22;;;;;;;16.92;12.45;;;;;;;18.45;44.24;100982.75;4971127;28;20045;-59
2022/04/22 08:10:48;;;;;;;19.45;12.43;;;;;;;18.45;43.61;100966.91;4972330;28;20045;-58
2022/04/22 08:13:14;;;;;;;20.08;12.65;;;;;;;18.11;44.74;100986.84;4975023;28;20440;-60
2022/04/22 08:15:47;;;;;;;17.55;12.48;;;;;;;17.18;46.81;100964.38;4979189;28;20449;-60
2022/04/22 08:18:13;;;;;;;19.42;12.98;;;;;;;17.43;46.60;100978.13;4961274;28;20041;-58
2022/04/22 08:20:38;;;;;;;19.27;13.80;;;;;;;17.23;46.87;100973.09;4970012;28;20052;-58
2022/04/22 08:23:04;;;;;;;21.02;13.52;;;;;;;17.50;47.12;100978.91;4974009;28;20057;-59
2022/04/22 08:25:29;;;;;;;21.00;13.55;;;;;;;17.64;46.38;100974.34;4974705;28;20045;-60
2022/04/22 08:27:55;;;;;;;23.75;14.07;;;;;;;17.62;46.42;100974.38;4974706;28;20037;-60
2022/04/22 08:30:21;;;;;;;20.95;13.57;;;;;;;17.38;46.70;100983.41;4976472;28;20052;-59
2022/04/22 08:32:46;;;;;;;20.67;14.05;;;;;;;17.08;47.26;100975.88;4957625;28;20069;-59
2022/04/22 08:35:12;;;;;;;21.02;14.00;;;;;;;17.24;48.58;100959.03;4977645;28;20041;-59
2022/04/22 08:37:37;;;;;;;21.38;13.57;;;;;;;17.11;47.01;100959.19;4965982;28;21235;-58
2022/04/22 08:40:07;;;;;;;18.67;12.98;;;;;;;17.19;46.91;100960.84;4979102;28;20125;-59
2022/04/22 08:42:35;;;;;;;21.77;13.40;;;;;;;17.58;46.29;100954.16;4975968;28;20375;-59
2022/04/22 08:45:01;;;;;;;21.95;13.15;;;;;;;17.70;46.82;100953.16;4967248;28;20163;-59
2022/04/22 08:50:16;;;;;;;20.00;13.55;;;;;;;17.53;45.96;100945.47;4972772;28;20144;-59
2022/04/22 08:52:44;;;;;;;19.77;12.73;;;;;;;17.45;46.85;100942.91;4967902;28;20045;-60
2022/04/22 08:55:12;;;;;;;21.17;12.70;;;;;;;17.55;46.77;100950.72;4973964;28;20049;-59
2022/04/22 08:57:39;;;;;;;17.75;12.57;;;;;;;17.45;46.63;100956.09;4972580;28;20050;-59
2022/04/22 09:00:09;;;;;;;20.52;13.38;;;;;;;17.31;46.33;100944.00;4976569;28;20492;-59
2022/04/22 09:02:37;;;;;;;20.63;12.60;;;;;;;17.50;46.50;100936.72;4976081;28;20173;-58
2022/04/22 09:05:02;;;;;;;20.23;12.40;;;;;;;17.59;45.75;100926.91;4973940;28;20115;-59
2022/04/22 09:07:29;;;;;;;19.85;12.45;;;;;;;17.91;46.26;100933.50;4974828;28;20203;-59
2022/04/22 09:09:54;;;;;;;20.45;13.15;;;;;;;17.74;45.28;100931.13;4979425;28;20688;-60
2022/04/22 09:12:22;;;;;;;20.60;12.38;;;;;;;17.79;45.69;100917.00;4969350;28;20041;-60
2022/04/22 09:14:59;;;;;;;23.55;12.68;;;;;;;17.24;46.11;100924.78;4963434;28;20385;-59
2022/04/22 09:17:33;;;;;;;18.67;12.13;;;;;;;17.78;46.63;100914.38;4976591;28;20049;-59
2022/04/22 09:20:01;;;;;;;20.73;12.18;;;;;;;17.86;45.92;100907.22;4972002;28;20136;-59
2022/04/22 09:22:29;;;;;;;19.52;12.15;;;;;;;17.77;45.30;100907.34;4978500;28;20066;-59
2022/04/22 09:24:56;;;;;;;18.85;12.20;;;;;;;17.80;45.00;100899.41;4968248;28;20503;-59
2022/04/22 09:27:42;;;;;;;18.60;11.68;;;;;;;18.06;44.21;100909.50;4974575;28;20050;-59
2022/04/22 09:30:09;;;;;;;19.63;12.27;;;;;;;17.88;44.06;100904.53;4970985;28;20073;-59
2022/04/22 09:32:39;;;;;;;31.10;11.88;;;;;;;17.87;44.12;100898.38;4970179;28;20376;-58
2022/04/22 09:35:20;;;;;;;20.23;11.70;;;;;;;17.49;44.74;100906.00;4971775;28;20053;-59
2022/04/22 09:43:39;;;;;;;15.95;11.45;;;;;;;18.67;43.89;100896.09;4973564;28;20108;-60
2022/04/22 09:46:05;;;;;;;16.83;11.57;;;;;;;18.30;43.14;100887.13;4972797;28;20046;-58
2022/04/22 09:48:42;;;;;;;16.98;11.45;;;;;;;18.31;43.65;100899.41;4957975;28;20057;-59
2022/04/22 09:51:27;;;;;;;20.80;11.18;;;;;;;18.43;42.50;100883.34;4976459;28;20069;-59
2022/04/22 09:54:01;;;;;;;17.95;11.27;;;;;;;18.67;42.57;100889.94;4977569;28;20050;-59
2022/04/22 09:56:27;;;;;;;18.35;11.32;;;;;;;18.30;42.61;100866.84;4973181;28;20324;-60
2022/04/22 09:58:55;;;;;;;19.63;10.88;;;;;;;18.51;42.19;100884.06;4967988;28;20046;-59
2022/04/22 10:01:23;;;;;;;16.38;10.68;;;;;;;18.38;42.02;100878.16;4974334;28;20049;-59
2022/04/22 10:03:50;;;;;;;15.68;10.18;;;;;;;18.29;43.99;100866.91;4973630;28;20081;-60
2022/04/22 10:06:15;;;;;;;16.35;10.38;;;;;;;18.81;42.62;100875.59;4955201;28;20062;-59
2022/04/22 10:08:43;;;;;;;15.88;10.40;;;;;;;18.49;42.23;100867.38;4954247;28;20485;-57
2022/04/22 10:11:10;;;;;;;17.50;9.88;;;;;;;18.62;43.02;100871.56;4976242;28;20046;-57
2022/04/22 10:13:44;;;;;;;14.23;10.40;;;;;;;18.57;42.44;100876.94;4971578;28;20069;-59
2022/04/22 10:16:10;;;;;;;14.45;10.02;;;;;;;18.81;40.66;100869.44;4971690;28;20046;-59
2022/04/22 10:18:41;;;;;;;17.55;10.25;;;;;;;18.75;41.34;100866.91;4970241;28;20046;-59
2022/04/22 10:21:07;;;;;;;18.30;10.88;;;;;;;18.58;41.82;100867.25;4958134;28;20054;-60
2022/04/22 10:23:32;;;;;;;18.65;10.27;;;;;;;18.62;41.93;100872.44;4977182;28;20049;-59
2022/04/22 10:25:59;;;;;;;15.50;10.18;;;;;;;18.92;41.63;100851.56;4974038;28;20502;-60
2022/04/22 10:28:26;;;;;;;15.90;9.75;;;;;;;19.17;41.80;100851.91;4955400;28;20038;-59
2022/04/22 10:30:54;;;;;;;15.32;10.27;;;;;;;19.18;40.29;100849.25;4971667;28;20046;-59
2022/04/22 10:33:24;;;;;;;16.65;9.98;;;;;;;19.02;40.91;100866.34;4976086;28;20042;-60
2022/04/22 10:35:57;;;;;;;15.93;9.82;;;;;;;18.90;40.88;100866.63;4966530;28;20361;-59
2022/04/22 10:38:33;;;;;;;15.07;9.87;;;;;;;19.06;40.95;100857.44;4981596;28;20038;-60
2022/04/22 10:41:02;;;;;;;16.17;9.70;;;;;;;19.01;42.02;100862.84;4972181;28;20060;-58
2022/04/22 10:43:28;;;;;;;22.88;10.15;;;;;;;18.63;41.32;100857.47;4979298;28;20042;-59
2022/04/22 10:48:40;;;;;;;16.48;10.18;;;;;;;18.91;41.04;100839.25;4977476;28;20408;-59
2022/04/22 10:51:09;;;;;;;14.93;9.63;;;;;;;18.98;40.85;100846.16;4973900;28;20049;-59
2022/04/22 10:53:49;;;;;;;14.35;9.35;;;;;;;19.08;40.65;100841.56;4979740;28;20060;-58
2022/04/22 10:56:23;;;;;;;14.10;9.90;;;;;;;19.17;40.33;100849.28;4978408;28;20630;-59
2022/04/22 10:59:21;;;;;;;13.63;9.52;;;;;;;18.98;40.76;100835.59;4963058;28;20899;-60
2022/04/22 11:01:47;;;;;;;19.15;9.50;;;;;;;18.95;40.51;100828.63;4972847;28;20363;-59
2022/04/22 11:04:20;;;;;;;13.27;9.00;;;;;;;18.84;40.67;100841.19;4971609;28;20573;-60
2022/04/22 11:06:46;;;;;;;13.73;8.57;;;;;;;19.12;40.30;100832.66;4950431;28;20042;-59
2022/04/22 11:09:24;;;;;;;13.25;8.98;;;;;;;19.37;39.21;100832.06;4960623;28;20424;-59
2022/04/22 11:11:50;;;;;;;14.38;8.93;;;;;;;19.30;39.89;100826.97;4962581;28;20054;-59
2022/04/22 11:14:20;;;;;;;15.23;9.82;;;;;;;19.40;40.53;100834.63;4950418;28;20057;-60
2022/04/22 11:16:45;;;;;;;19.23;9.60;;;;;;;19.83;40.26;100826.56;4958723;28;20073;-59
2022/04/22 11:19:17;;;;;;;15.60;10.05;;;;;;;19.63;40.20;100820.03;4947874;28;20050;-58
2022/04/22 11:21:43;;;;;;;17.38;9.40;;;;;;;19.19;41.82;100827.22;4965634;28;20151;-60
2022/04/22 11:24:14;;;;;;;17.45;9.88;;;;;;;18.84;41.49;100822.72;4957736;28;20046;-60
2022/04/22 11:26:39;;;;;;;14.93;9.85;;;;;;;19.22;41.13;100811.25;4955913;28;20101;-59
2022/04/22 11:29:10;;;;;;;16.00;9.57;;;;;;;19.00;41.29;100813.53;4957211;28;20125;-59
2022/04/22 11:31:36;;;;;;;16.27;9.90;;;;;;;19.08;41.45;100818.66;4954552;28;20043;-60
2022/04/22 11:34:11;;;;;;;18.42;10.05;;;;;;;18.95;42.31;100809.25;4955188;28;20128;-59
2022/04/22 11:36:43;;;;;;;15.13;9.40;;;;;;;19.34;41.53;100815.41;4954897;28;20053;-59
2022/04/22 11:39:15;;;;;;;14.75;9.23;;;;;;;19.18;41.22;100806.97;4949345;28;20175;-60
2022/04/22 11:42:01;;;;;;;16.58;9.52;;;;;;;19.23;40.76;100806.84;4949641;28;20498;-60
2022/04/22 11:44:29;;;;;;;16.77;9.68;;;;;;;19.09;40.62;100807.16;4960106;28;20072;-60
2022/04/22 11:46:54;;;;;;;12.50;9.07;;;;;;;18.99;40.08;100808.28;4952256;28;20341;-60
2022/04/22 11:49:21;;;;;;;15.82;9.20;;;;;;;19.23;40.17;100806.84;4947435;28;20053;-59
2022/04/22 11:51:53;;;;;;;18.35;9.20;;;;;;;19.15;40.87;100804.38;4936156;28;20050;-59
2022/04/22 11:54:24;;;;;;;11.82;9.07;;;;;;;19.56;39.89;100814.03;4940794;28;20065;-59
2022/04/22 11:56:50;;;;;;;15.65;8.38;;;;;;;19.69;40.35;100811.97;4946034;28;20547;-59
2022/04/22 11:59:19;;;;;;;13.55;8.70;;;;;;;19.92;39.46;100804.28;4962122;28;20245;-59
2022/04/22 12:10:01;;;;;;;12.70;8.88;;;;;;;18.95;39.69;100796.06;4952708;28;20061;-59
2022/04/22 12:12:31;;;;;;;13.70;8.90;;;;;;;18.54;40.47;100808.31;4956442;28;20158;-60
2022/04/22 12:15:06;;;;;;;11.32;7.40;;;;;;;18.62;40.49;100787.94;4945174;28;20042;-59
2022/04/22 12:17:31;;;;;;;16.80;8.10;;;;;;;18.79;39.95;100791.97;4957251;28;20053;-60
2022/04/22 12:19:57;;;;;;;12.40;7.88;;;;;;;18.97;38.54;100787.16;4956268;28;20054;-59
2022/04/22 12:22:24;;;;;;;12.38;7.68;;;;;;;18.76;39.69;100787.66;4958183;28;20139;-59
2022/04/22 12:25:13;;;;;;;12.68;7.88;;;;;;;19.12;38.33;100778.03;4949691;28;20516;-59
2022/04/22 12:27:40;;;;;;;12.55;6.80;;;;;;;19.40;38.55;100780.88;4955960;28;20042;-59
2022/04/22 12:30:08;;;;;;;10.27;6.75;;;;;;;19.20;36.94;100785.78;4945753;28;20116;-59
2022/04/22 12:32:37;;;;;;;9.70;6.68;;;;;;;19.39;36.35;100781.81;4956729;28;20165;-60
2022/04/22 12:35:29;;;;;;;10.75;6.50;;;;;;;19.03;36.77;100770.31;4952131;28;20038;-60
2022/04/22 12:37:58;;;;;;;10.55;6.47;;;;;;;19.10;36.57;100777.19;4948206;28;20304;-60
2022/04/22 12:40:26;;;;;;;10.52;6.30;;;;;;;19.23;36.19;100768.06;4955286;28;20047;-60
2022/04/22 12:42:52;;;;;;;8.65;6.05;;;;;;;19.54;36.81;100773.53;4953500;28;20298;-59
2022/04/22 12:53:47;;;;;;;9.93;5.90;;;;;;;19.30;36.42;100747.66;4952014;28;20453;-60
2022/04/22 12:56:13;;;;;;;9.05;6.47;;;;;;;19.34;36.00;100760.75;4957824;28;20989;-60
2022/04/22 12:59:07;;;;;;;15.02;6.07;;;;;;;19.50;35.16;100748.06;4947238;28;20638;-59
2022/04/22 13:01:37;;;;;;;8.77;5.50;;;;;;;19.99;34.81;100745.00;4942141;28;20513;-60
2022/04/22 13:04:03;;;;;;;15.10;5.45;;;;;;;20.00;34.78;100744.09;4949605;28;20401;-60
2022/04/22 13:06:43;;;;;;;7.95;5.45;;;;;;;19.87;33.10;100741.81;4972802;28;20048;-60
2022/04/22 13:09:10;;;;;;;6.90;5.18;;;;;;;20.11;34.12;100744.69;4970796;28;20052;-60
2022/04/22 13:11:37;;;;;;;8.00;5.28;;;;;;;20.24;32.68;100738.13;4958662;28;20061;-59
2022/04/22 13:14:04;;;;;;;10.02;5.13;;;;;;;20.30;32.85;100741.50;4977500;28;20433;-60
2022/04/22 13:16:29;;;;;;;9.38;4.90;;;;;;;20.01;33.35;100735.22;4976430;28;20038;-59
2022/04/22 13:18:59;;;;;;;8.15;4.93;;;;;;;20.34;31.99;100729.94;4966704;28;20216;-59
2022/04/22 13:21:25;;;;;;;8.82;4.80;;;;;;;19.78;32.30;100733.22;4978329;28;20038;-60
2022/04/22 13:23:51;;;;;;;8.15;5.32;;;;;;;19.96;33.10;100729.19;4972925;28;20767;-58
2022/04/22 13:26:17;;;;;;;10.13;5.10;;;;;;;20.01;32.89;100729.94;4958739;28;21309;-60
2022/04/22 13:28:43;;;;;;;8.77;4.85;;;;;;;20.07;33.43;100715.66;4969758;28;20255;-62
2022/04/22 13:31:08;;;;;;;9.77;4.80;;;;;;;20.16;32.89;100712.78;4967230;28;20143;-60
2022/04/22 13:33:34;;;;;;;7.55;5.03;;;;;;;20.10;32.02;100705.00;4978297;28;20131;-59
2022/04/22 13:36:02;;;;;;;6.50;4.57;;;;;;;20.26;32.25;100706.28;4960633;28;20235;-60
2022/04/22 13:38:32;;;;;;;10.50;5.00;;;;;;;20.09;32.13;100700.63;4980140;28;20127;-61
2022/04/22 13:40:58;;;;;;;7.43;4.90;;;;;;;20.22;32.39;100699.38;4956742;28;20046;-59
2022/04/22 13:43:26;;;;;;;6.35;4.53;;;;;;;20.49;32.38;100697.72;4974102;28;20076;-59
2022/04/22 13:54:05;;;;;;;11.05;4.43;;;;;;;21.06;31.07;100695.03;4973089;28;20112;-59
2022/04/22 13:56:30;;;;;;;7.30;4.70;;;;;;;21.27;30.76;100699.66;4980044;28;20042;-60
2022/04/22 13:58:55;;;;;;;7.75;4.65;;;;;;;21.09;31.79;100691.41;4972839;28;20567;-60
2022/04/22 14:01:21;;;;;;;7.93;4.78;;;;;;;21.33;30.42;100687.97;4973317;28;20046;-59
2022/04/22 14:03:46;;;;;;;8.32;4.80;;;;;;;21.11;31.09;100694.88;4978692;28;20552;-60
2022/04/22 14:06:11;;;;;;;7.60;4.10;;;;;;;21.44;31.30;100686.69;4973240;28;20057;-59
2022/04/22 14:08:37;;;;;;;6.40;4.78;;;;;;;21.21;31.31;100685.75;4973539;28;20070;-59
2022/04/22 14:11:03;;;;;;;8.75;4.68;;;;;;;21.25;30.52;100682.94;4976099;28;20107;-59
2022/04/22 14:13:31;;;;;;;7.47;4.60;;;;;;;20.60;31.72;100680.59;4975329;28;20072;-60
2022/04/22 14:15:56;;;;;;;9.85;4.70;;;;;;;20.76;32.44;100675.69;4974176;28;20056;-60
2022/04/22 14:18:22;;;;;;;10.18;4.70;;;;;;;20.35;32.38;100669.00;4972086;28;20029;-59
2022/04/22 14:20:47;;;;;;;11.10;4.60;;;;;;;20.42;32.69;100678.50;4967890;28;20073;-59
2022/04/22 14:23:12;;;;;;;7.43;4.78;;;;;;;20.16;32.88;100668.66;4974481;28;20594;-59
2022/04/22 14:25:38;;;;;;;6.95;4.68;;;;;;;20.41;31.45;100668.81;4978325;28;20148;-59
2022/04/22 14:28:04;;;;;;;7.78;5.20;;;;;;;20.03;31.59;100669.03;4968813;28;20390;-58
2022/04/22 14:30:29;;;;;;;8.80;4.78;;;;;;;20.19;31.46;100665.03;4977884;28;20049;-59
2022/04/22 14:32:55;;;;;;;8.73;5.18;;;;;;;20.34;31.27;100651.38;4966965;28;20560;-59
2022/04/22 14:35:20;;;;;;;6.78;4.78;;;;;;;20.41;33.17;100662.66;4977916;28;20062;-60
2022/04/22 14:37:46;;;;;;;8.65;4.75;;;;;;;20.56;31.24;100656.88;4980006;28;20053;-61
2022/04/22 14:40:12;;;;;;;7.45;4.45;;;;;;;20.85;31.45;100661.28;4972601;28;20039;-60
2022/04/22 14:42:40;;;;;;;12.40;4.50;;;;;;;21.11;30.88;100655.09;4978459;28;20200;-61
2022/04/22 14:45:05;;;;;;;12.15;4.60;;;;;;;21.01;31.63;100644.81;4971251;28;20387;-62
2022/04/22 14:47:31;;;;;;;9.57;5.22;;;;;;;20.78;31.63;100649.13;4975501;28;20140;-59
2022/04/22 14:49:56;;;;;;;8.82;4.88;;;;;;;20.64;30.90;100654.88;4982007;28;20037;-60
2022/04/22 14:52:21;;;;;;;13.20;5.10;;;;;;;20.73;31.88;100653.72;4974524;28;20397;-60
2022/04/22 14:54:46;;;;;;;10.45;4.90;;;;;;;20.67;31.69;100652.97;4971179;28;20042;-62
2022/04/22 14:57:12;;;;;;;6.63;4.28;;;;;;;20.90;31.10;100646.97;4957946;28;20074;-61
2022/04/22 14:59:37;;;;;;;10.13;5.05;;;;;;;21.11;30.95;100653.31;4969514;28;20038;-60
2022/04/22 15:02:04;;;;;;;10.27;4.70;;;;;;;20.85;31.79;100645.38;4962364;28;20058;-61
2022/04/22 15:04:30;;;;;;;6.88;4.45;;;;;;;20.61;31.39;100647.03;4978811;28;20153;-60
2022/04/22 15:06:56;;;;;;;9.50;5.05;;;;;;;20.40;31.86;100647.69;4969493;28;20899;-63
2022/04/22 15:09:21;;;;;;;8.60;4.47;;;;;;;20.48;32.37;100657.13;4979256;28;20080;-59
2022/04/22 15:11:46;;;;;;;9.10;4.55;;;;;;;20.47;32.62;100646.59;4964436;28;20038;-59
2022/04/22 15:14:13;;;;;;;10.18;4.80;;;;;;;20.18;32.50;100644.78;4970959;28;20053;-62
2022/04/22 15:16:39;;;;;;;8.73;4.80;;;;;;;20.12;32.49;100642.31;4964674;28;20049;-61
2022/04/22 15:24:32;;;;;;;7.40;4.55;;;;;;;20.42;32.52;100643.22;4981919;28;20119;-60
2022/04/22 15:26:58;;;;;;;7.30;4.20;;;;;;;20.40;32.87;100643.25;4960976;28;20883;-60
2022/04/22 15:29:25;;;;;;;8.63;4.43;;;;;;;20.51;34.29;100643.78;4974914;28;20315;-60
2022/04/22 15:31:50;;;;;;;6.45;4.03;;;;;;;20.64;33.13;100634.53;4975520;28;20457;-59
2022/04/22 15:34:18;;;;;;;8.13;3.95;;;;;;;20.67;32.55;100636.25;4978551;28;20299;-59
2022/04/22 15:36:44;;;;;;;12.48;4.45;;;;;;;20.50;33.23;100642.03;4969710;28;20058;-59
2022/04/22 15:39:09;;;;;;;9.73;4.15;;;;;;;20.19;33.96;100636.78;4975996;28;20054;-61
2022/04/22 15:41:35;;;;;;;7.70;4.40;;;;;;;20.05;34.09;100630.19;4957299;28;20364;-61
2022/04/22 15:44:04;;;;;;;10.38;4.57;;;;;;;20.12;34.19;100637.91;4975891;28;20041;-60
2022/04/22 15:46:30;;;;;;;5.65;4.20;;;;;;;19.80;35.04;100643.25;4972471;28;20048;-60
2022/04/22 15:48:56;;;;;;;7.93;4.53;;;;;;;19.95;34.68;100640.16;4967114;28;20197;-60
2022/04/22 15:51:22;;;;;;;8.35;4.10;;;;;;;19.89;34.72;100644.75;4971481;28;20054;-60
2022/04/22 15:53:48;;;;;;;7.82;4.40;;;;;;;19.46;35.19;100645.91;4973236;28;20045;-60
2022/04/22 15:56:15;;;;;;;9.40;4.30;;;;;;;19.46;34.69;100637.16;4978461;28;20132;-62
2022/04/22 15:58:43;;;;;;;6.43;4.30;;;;;;;19.56;34.04;100647.44;4968546;28;20040;-59
2022/04/22 16:01:17;;;;;;;12.93;4.30;;;;;;;19.57;34.73;100635.94;4977218;28;20278;-59
2022/04/22 16:03:48;;;;;;;7.60;4.43;;;;;;;19.53;34.18;100634.28;4980391;28;20041;-59
2022/04/22 16:06:15;;;;;;;6.72;3.90;;;;;;;19.57;35.27;100640.38;4977694;28;20070;-60
2022/04/22 16:08:41;;;;;;;6.28;4.10;;;;;;;19.63;34.49;100629.63;4971428;28;20037;-61
2022/04/22 16:16:34;;;;;;;6.80;4.25;;;;;;;19.50;34.82;100638.78;4970953;28;20555;-58
2022/04/22 16:18:59;;;;;;;7.88;4.70;;;;;;;19.57;34.65;100643.88;4964560;28;20133;-60
2022/04/22 16:21:25;;;;;;;9.75;4.57;;;;;;;19.64;34.41;100640.13;4976660;28;20045;-60
2022/04/22 16:23:55;;;;;;;10.45;4.95;;;;;;;19.53;34.37;100639.56;4971899;28;20137;-60
2022/04/22 16:26:22;;;;;;;10.25;5.00;;;;;;;19.31;35.22;100639.25;4972770;28;20515;-60
2022/04/22 16:28:47;;;;;;;9.68;5.07;;;;;;;19.48;35.78;100643.25;4962934;28;20046;-60
2022/04/22 16:31:12;;;;;;;7.32;4.90;;;;;;;19.54;35.93;100630.72;4958916;28;20576;-59
2022/04/22 16:33:37;;;;;;;9.48;5.20;;;;;;;19.26;35.86;100638.50;4965703;28;20165;-61
2022/04/22 16:36:03;;;;;;;12.05;5.55;;;;;;;19.20;36.59;100638.66;4974575;28;20109;-59
2022/04/22 16:38:28;;;;;;;13.75;5.05;;;;;;;19.37;37.06;100643.50;4976595;28;20038;-60
2022/04/22 16:40:54;;;;;;;8.68;5.07;;;;;;;19.17;36.40;100653.72;4965591;28;20053;-60
2022/04/22 16:43:19;;;;;;;8.77;5.40;;;;;;;19.19;35.89;100650.13;4958124;28;20076;-61